sensor_id;sensor_type;location;lat;lon;timestamp;pressure;altitude;pressure_sealevel;temperature;humidity
43488;BME280;29078;41.932;25.554;2023-05-29T00:00:08;99185.66;;;18.58;72.88
43488;BME280;29078;41.932;25.554;2023-05-29T00:02:34;99189.38;;;18.57;73.42
43488;BME280;29078;41.932;25.554;2023-05-29T00:04:59;99182.41;;;18.56;73.44
43488;BME280;29078;41.932;25.554;2023-05-29T00:07:28;99180.78;;;18.55;72.33
43488;BME280;29078;41.932;25.554;2023-05-29T00:09:53;99181.28;;;18.52;72.46
43488;BME280;29078;41.932;25.554;2023-05-29T00:12:18;99183.03;;;18.46;73.31
43488;BME280;29078;41.932;25.554;2023-05-29T00:14:44;99180.13;;;18.48;73.28
43488;BME280;29078;41.932;25.554;2023-05-29T00:17:09;99175.34;;;18.50;72.67
43488;BME280;29078;41.932;25.554;2023-05-29T00:19:37;99179.41;;;18.52;71.53
43488;BME280;29078;41.932;25.554;2023-05-29T00:22:02;99185.00;;;18.51;73.17
43488;BME280;29078;41.932;25.554;2023-05-29T00:24:28;99175.69;;;18.53;72.70
43488;BME280;29078;41.932;25.554;2023-05-29T00:26:53;99182.66;;;18.54;73.24
43488;BME280;29078;41.932;25.554;2023-05-29T00:29:18;99184.53;;;18.54;73.68
43488;BME280;29078;41.932;25.554;2023-05-29T00:31:46;99182.09;;;18.52;73.16
43488;BME280;29078;41.932;25.554;2023-05-29T00:34:11;99178.34;;;18.53;73.00
43488;BME280;29078;41.932;25.554;2023-05-29T00:36:36;99183.72;;;18.53;72.63
43488;BME280;29078;41.932;25.554;2023-05-29T00:39:01;99189.06;;;18.53;72.28
43488;BME280;29078;41.932;25.554;2023-05-29T00:41:27;99183.94;;;18.52;72.88
43488;BME280;29078;41.932;25.554;2023-05-29T00:43:53;99184.53;;;18.54;73.38
43488;BME280;29078;41.932;25.554;2023-05-29T00:46:18;99183.94;;;18.52;73.72
43488;BME280;29078;41.932;25.554;2023-05-29T00:48:45;99183.38;;;18.50;74.31
43488;BME280;29078;41.932;25.554;2023-05-29T00:51:10;99182.00;;;18.47;72.67
43488;BME280;29078;41.932;25.554;2023-05-29T00:53:37;99183.03;;;18.46;73.45
43488;BME280;29078;41.932;25.554;2023-05-29T00:56:03;99183.50;;;18.43;72.95
43488;BME280;29078;41.932;25.554;2023-05-29T00:58:29;99182.38;;;18.39;72.50
43488;BME280;29078;41.932;25.554;2023-05-29T01:00:55;99180.50;;;18.39;72.71
43488;BME280;29078;41.932;25.554;2023-05-29T01:03:20;99180.50;;;18.39;73.03
43488;BME280;29078;41.932;25.554;2023-05-29T01:05:48;99173.28;;;18.40;72.81
43488;BME280;29078;41.932;25.554;2023-05-29T01:08:13;99182.13;;;18.40;73.85
43488;BME280;29078;41.932;25.554;2023-05-29T01:10:38;99182.38;;;18.39;74.23
43488;BME280;29078;41.932;25.554;2023-05-29T01:13:06;99180.84;;;18.43;73.66
43488;BME280;29078;41.932;25.554;2023-05-29T01:15:46;99172.59;;;18.45;74.08
43488;BME280;29078;41.932;25.554;2023-05-29T01:20:48;99181.88;;;18.42;72.96
43488;BME280;29078;41.932;25.554;2023-05-29T01:28:27;99177.34;;;18.42;73.20
43488;BME280;29078;41.932;25.554;2023-05-29T01:30:54;99182.47;;;18.44;72.74
43488;BME280;29078;41.932;25.554;2023-05-29T01:33:22;99176.06;;;18.45;73.39
43488;BME280;29078;41.932;25.554;2023-05-29T01:35:47;99178.50;;;18.47;73.43
43488;BME280;29078;41.932;25.554;2023-05-29T01:38:12;99171.06;;;18.49;72.92
43488;BME280;29078;41.932;25.554;2023-05-29T01:40:37;99172.81;;;18.43;72.88
43488;BME280;29078;41.932;25.554;2023-05-29T01:43:03;99166.66;;;18.42;72.27
43488;BME280;29078;41.932;25.554;2023-05-29T01:45:28;99167.94;;;18.40;73.31
43488;BME280;29078;41.932;25.554;2023-05-29T01:47:54;99167.13;;;18.39;73.18
43488;BME280;29078;41.932;25.554;2023-05-29T01:50:20;99167.13;;;18.39;72.51
43488;BME280;29078;41.932;25.554;2023-05-29T01:52:48;99166.31;;;18.39;72.57
43488;BME280;29078;41.932;25.554;2023-05-29T01:55:13;99168.44;;;18.37;72.75
43488;BME280;29078;41.932;25.554;2023-05-29T01:57:38;99174.00;;;18.35;73.00
43488;BME280;29078;41.932;25.554;2023-05-29T02:00:05;99172.97;;;18.36;72.91
43488;BME280;29078;41.932;25.554;2023-05-29T02:02:37;99175.97;;;18.40;72.97
43488;BME280;29078;41.932;25.554;2023-05-29T02:05:03;99172.00;;;18.42;72.12
43488;BME280;29078;41.932;25.554;2023-05-29T02:07:28;99177.34;;;18.42;72.39
43488;BME280;29078;41.932;25.554;2023-05-29T02:09:53;99163.41;;;18.40;71.95
43488;BME280;29078;41.932;25.554;2023-05-29T02:12:18;99169.47;;;18.36;73.14
43488;BME280;29078;41.932;25.554;2023-05-29T02:14:44;99170.28;;;18.36;72.16
43488;BME280;29078;41.932;25.554;2023-05-29T02:17:09;99169.13;;;18.32;73.01
43488;BME280;29078;41.932;25.554;2023-05-29T02:19:35;99168.91;;;18.34;72.19
43488;BME280;29078;41.932;25.554;2023-05-29T02:22:01;99178.78;;;18.33;72.91
43488;BME280;29078;41.932;25.554;2023-05-29T02:24:27;99171.09;;;18.37;72.40
43488;BME280;29078;41.932;25.554;2023-05-29T02:26:52;99178.78;;;18.33;72.48
43488;BME280;29078;41.932;25.554;2023-05-29T02:29:18;99179.59;;;18.34;72.40
43488;BME280;29078;41.932;25.554;2023-05-29T02:31:43;99181.44;;;18.33;72.93
43488;BME280;29078;41.932;25.554;2023-05-29T02:34:09;99178.19;;;18.31;73.14
43488;BME280;29078;41.932;25.554;2023-05-29T02:36:34;99184.13;;;18.33;72.79
43488;BME280;29078;41.932;25.554;2023-05-29T02:39:02;99182.50;;;18.32;73.11
43488;BME280;29078;41.932;25.554;2023-05-29T02:41:28;99186.56;;;18.35;72.70
43488;BME280;29078;41.932;25.554;2023-05-29T02:43:53;99189.00;;;18.36;72.55
43488;BME280;29078;41.932;25.554;2023-05-29T02:46:18;99187.38;;;18.35;72.38
43488;BME280;29078;41.932;25.554;2023-05-29T02:48:43;99187.38;;;18.35;71.75
43488;BME280;29078;41.932;25.554;2023-05-29T02:51:09;99189.00;;;18.36;72.37
43488;BME280;29078;41.932;25.554;2023-05-29T02:53:34;99194.34;;;18.36;72.41
43488;BME280;29078;41.932;25.554;2023-05-29T02:56:00;99200.75;;;18.35;72.79
43488;BME280;29078;41.932;25.554;2023-05-29T02:58:25;99201.06;;;18.39;72.65
43488;BME280;29078;41.932;25.554;2023-05-29T03:00:52;99203.50;;;18.40;72.37
43488;BME280;29078;41.932;25.554;2023-05-29T03:03:17;99205.84;;;18.37;73.07
43488;BME280;29078;41.932;25.554;2023-05-29T03:05:42;99210.63;;;18.35;73.21
43488;BME280;29078;41.932;25.554;2023-05-29T03:08:08;99201.53;;;18.36;72.70
43488;BME280;29078;41.932;25.554;2023-05-29T03:10:33;99206.09;;;18.35;72.33
43488;BME280;29078;41.932;25.554;2023-05-29T03:12:58;99216.78;;;18.35;72.58
43488;BME280;29078;41.932;25.554;2023-05-29T03:15:24;99218.63;;;18.35;72.71
43488;BME280;29078;41.932;25.554;2023-05-29T03:17:49;99221.88;;;18.37;72.70
43488;BME280;29078;41.932;25.554;2023-05-29T03:20:14;99218.75;;;18.40;72.82
43488;BME280;29078;41.932;25.554;2023-05-29T03:22:40;99224.09;;;18.40;71.98
43488;BME280;29078;41.932;25.554;2023-05-29T03:25:06;99227.00;;;18.38;72.03
43488;BME280;29078;41.932;25.554;2023-05-29T03:27:31;99218.97;;;18.38;72.54
43488;BME280;29078;41.932;25.554;2023-05-29T03:29:56;99221.97;;;18.42;72.51
43488;BME280;29078;41.932;25.554;2023-05-29T03:32:23;99224.91;;;18.40;72.26
43488;BME280;29078;41.932;25.554;2023-05-29T03:34:48;99223.03;;;18.41;72.15
43488;BME280;29078;41.932;25.554;2023-05-29T03:37:13;99227.56;;;18.40;72.13
43488;BME280;29078;41.932;25.554;2023-05-29T03:39:39;99223.03;;;18.41;72.32
43488;BME280;29078;41.932;25.554;2023-05-29T03:42:04;99230.81;;;18.42;72.49
43488;BME280;29078;41.932;25.554;2023-05-29T03:44:29;99235.13;;;18.43;72.53
43488;BME280;29078;41.932;25.554;2023-05-29T03:46:55;99241.84;;;18.46;72.72
43488;BME280;29078;41.932;25.554;2023-05-29T03:49:20;99237.88;;;18.49;71.55
43488;BME280;29078;41.932;25.554;2023-05-29T03:51:45;99236.25;;;18.48;72.19
43488;BME280;29078;41.932;25.554;2023-05-29T03:54:11;99239.75;;;18.48;72.21
43488;BME280;29078;41.932;25.554;2023-05-29T03:56:36;99236.03;;;18.49;72.08
43488;BME280;29078;41.932;25.554;2023-05-29T03:59:02;99232.06;;;18.52;72.23
43488;BME280;29078;41.932;25.554;2023-05-29T04:01:27;99234.03;;;18.56;72.15
43488;BME280;29078;41.932;25.554;2023-05-29T04:03:52;99227.63;;;18.57;72.10
43488;BME280;29078;41.932;25.554;2023-05-29T04:06:18;99220.22;;;18.59;72.09
43488;BME280;29078;41.932;25.554;2023-05-29T04:08:43;99228.59;;;18.63;72.09
43488;BME280;29078;41.932;25.554;2023-05-29T04:11:08;99225.13;;;18.62;71.68
43488;BME280;29078;41.932;25.554;2023-05-29T04:13:33;99226.75;;;18.63;72.01
43488;BME280;29078;41.932;25.554;2023-05-29T04:15:59;99218.00;;;18.68;71.75
43488;BME280;29078;41.932;25.554;2023-05-29T04:18:24;99228.69;;;18.68;71.57
43488;BME280;29078;41.932;25.554;2023-05-29T04:20:50;99235.69;;;18.69;71.30
43488;BME280;29078;41.932;25.554;2023-05-29T04:23:16;99228.22;;;18.71;71.13
43488;BME280;29078;41.932;25.554;2023-05-29T04:25:41;99228.00;;;18.72;71.54
43488;BME280;29078;41.932;25.554;2023-05-29T04:28:06;99234.72;;;18.75;71.06
43488;BME280;29078;41.932;25.554;2023-05-29T04:30:32;99241.47;;;18.78;71.02
43488;BME280;29078;41.932;25.554;2023-05-29T04:32:58;99230.28;;;18.81;71.30
43488;BME280;29078;41.932;25.554;2023-05-29T04:35:24;99241.31;;;18.84;71.15
43488;BME280;29078;41.932;25.554;2023-05-29T04:37:49;99233.53;;;18.83;71.03
43488;BME280;29078;41.932;25.554;2023-05-29T04:40:14;99231.91;;;18.82;71.82
43488;BME280;29078;41.932;25.554;2023-05-29T04:42:42;99238.63;;;18.84;71.04
43488;BME280;29078;41.932;25.554;2023-05-29T04:45:09;99236.44;;;18.81;71.30
43488;BME280;29078;41.932;25.554;2023-05-29T04:47:35;99236.22;;;18.83;71.05
43488;BME280;29078;41.932;25.554;2023-05-29T04:50:01;99242.94;;;18.85;70.92
43488;BME280;29078;41.932;25.554;2023-05-29T04:52:27;99242.38;;;18.83;71.81
43488;BME280;29078;41.932;25.554;2023-05-29T04:54:53;99252.50;;;18.81;71.48
43488;BME280;29078;41.932;25.554;2023-05-29T04:57:18;99265.63;;;18.83;71.23
43488;BME280;29078;41.932;25.554;2023-05-29T04:59:44;99267.81;;;18.86;70.90
43488;BME280;29078;41.932;25.554;2023-05-29T05:02:09;99271.88;;;18.88;71.10
43488;BME280;29078;41.932;25.554;2023-05-29T05:04:34;99274.00;;;18.86;70.86
43488;BME280;29078;41.932;25.554;2023-05-29T05:07:00;99273.66;;;18.83;71.08
43488;BME280;29078;41.932;25.554;2023-05-29T05:09:25;99277.94;;;18.84;71.16
43488;BME280;29078;41.932;25.554;2023-05-29T05:11:51;99267.59;;;18.87;70.99
43488;BME280;29078;41.932;25.554;2023-05-29T05:14:16;99279.91;;;18.88;71.34
43488;BME280;29078;41.932;25.554;2023-05-29T05:16:42;99283.72;;;18.92;71.09
43488;BME280;29078;41.932;25.554;2023-05-29T05:19:07;99279.28;;;18.98;71.04
43488;BME280;29078;41.932;25.554;2023-05-29T05:21:32;99280.19;;;19.03;70.99
43488;BME280;29078;41.932;25.554;2023-05-29T05:23:58;99277.28;;;19.05;70.45
43488;BME280;29078;41.932;25.554;2023-05-29T05:26:23;99280.53;;;19.07;70.77
43488;BME280;29078;41.932;25.554;2023-05-29T05:28:48;99274.69;;;19.10;70.32
43488;BME280;29078;41.932;25.554;2023-05-29T05:31:13;99268.88;;;19.13;69.94
43488;BME280;29078;41.932;25.554;2023-05-29T05:33:39;99278.84;;;19.18;69.90
43488;BME280;29078;41.932;25.554;2023-05-29T05:36:04;99281.84;;;19.21;69.44
43488;BME280;29078;41.932;25.554;2023-05-29T05:38:30;99280.09;;;19.27;69.58
43488;BME280;29078;41.932;25.554;2023-05-29T05:40:55;99280.19;;;19.32;69.52
43488;BME280;29078;41.932;25.554;2023-05-29T05:43:21;99273.88;;;19.38;69.43
43488;BME280;29078;41.932;25.554;2023-05-29T05:45:46;99279.00;;;19.40;69.00
43488;BME280;29078;41.932;25.554;2023-05-29T05:48:12;99274.47;;;19.40;68.76
43488;BME280;29078;41.932;25.554;2023-05-29T05:50:37;99283.63;;;19.44;69.13
43488;BME280;29078;41.932;25.554;2023-05-29T05:53:02;99278.28;;;19.44;68.80
43488;BME280;29078;41.932;25.554;2023-05-29T05:55:28;99292.72;;;19.43;69.18
43488;BME280;29078;41.932;25.554;2023-05-29T05:57:53;99287.94;;;19.45;69.30
43488;BME280;29078;41.932;25.554;2023-05-29T06:00:19;99288.63;;;19.52;68.88
43488;BME280;29078;41.932;25.554;2023-05-29T06:02:44;99285.44;;;19.55;68.88
43488;BME280;29078;41.932;25.554;2023-05-29T06:05:10;99290.56;;;19.57;68.45
43488;BME280;29078;41.932;25.554;2023-05-29T06:07:36;99293.34;;;19.62;68.17
43488;BME280;29078;41.932;25.554;2023-05-29T06:10:02;99289.84;;;19.61;68.32
43488;BME280;29078;41.932;25.554;2023-05-29T06:12:28;99294.94;;;19.63;68.20
43488;BME280;29078;41.932;25.554;2023-05-29T06:14:53;99291.47;;;19.62;68.59
43488;BME280;29078;41.932;25.554;2023-05-29T06:17:19;99291.47;;;19.62;68.56
43488;BME280;29078;41.932;25.554;2023-05-29T06:19:44;99297.16;;;19.66;68.10
43488;BME280;29078;41.932;25.554;2023-05-29T06:22:09;99289.94;;;19.66;68.13
43488;BME280;29078;41.932;25.554;2023-05-29T06:24:34;99294.47;;;19.66;68.31
43488;BME280;29078;41.932;25.554;2023-05-29T06:27:00;99294.53;;;19.71;67.75
43488;BME280;29078;41.932;25.554;2023-05-29T06:29:26;99294.78;;;19.70;68.22
43488;BME280;29078;41.932;25.554;2023-05-29T06:31:51;99301.03;;;19.75;68.05
43488;BME280;29078;41.932;25.554;2023-05-29T06:34:17;99298.19;;;19.82;68.34
43488;BME280;29078;41.932;25.554;2023-05-29T06:36:42;99293.41;;;19.84;68.08
43488;BME280;29078;41.932;25.554;2023-05-29T06:39:07;99288.63;;;19.86;67.77
43488;BME280;29078;41.932;25.554;2023-05-29T06:41:32;99297.47;;;19.86;67.56
43488;BME280;29078;41.932;25.554;2023-05-29T06:43:58;99302.81;;;19.86;67.83
43488;BME280;29078;41.932;25.554;2023-05-29T06:46:23;99297.22;;;19.88;67.53
43488;BME280;29078;41.932;25.554;2023-05-29T06:48:48;99297.53;;;19.91;67.48
43488;BME280;29078;41.932;25.554;2023-05-29T06:51:15;99299.41;;;19.91;67.58
43488;BME280;29078;41.932;25.554;2023-05-29T06:53:41;99291.94;;;19.93;67.62
43488;BME280;29078;41.932;25.554;2023-05-29T06:56:06;99297.31;;;19.93;67.35
43488;BME280;29078;41.932;25.554;2023-05-29T06:58:32;99299.97;;;19.93;66.93
43488;BME280;29078;41.932;25.554;2023-05-29T07:00:58;99301.78;;;19.87;66.82
43488;BME280;29078;41.932;25.554;2023-05-29T07:03:24;99300.63;;;19.83;66.93
43488;BME280;29078;41.932;25.554;2023-05-29T07:05:50;99295.53;;;19.82;67.50
43488;BME280;29078;41.932;25.554;2023-05-29T07:08:15;99296.09;;;19.84;66.93
43488;BME280;29078;41.932;25.554;2023-05-29T07:10:40;99292.19;;;19.91;67.05
43488;BME280;29078;41.932;25.554;2023-05-29T07:13:06;99289.25;;;19.93;66.59
43488;BME280;29078;41.932;25.554;2023-05-29T07:15:31;99290.63;;;19.95;66.76
43488;BME280;29078;41.932;25.554;2023-05-29T07:17:57;99286.09;;;19.96;66.45
43488;BME280;29078;41.932;25.554;2023-05-29T07:20:22;99282.75;;;20.06;66.46
43488;BME280;29078;41.932;25.554;2023-05-29T07:22:47;99285.84;;;20.14;66.67
43488;BME280;29078;41.932;25.554;2023-05-29T07:25:12;99278.44;;;20.21;66.25
43488;BME280;29078;41.932;25.554;2023-05-29T07:27:38;99292.56;;;20.34;65.93
43488;BME280;29078;41.932;25.554;2023-05-29T07:30:03;99285.16;;;20.41;65.60
43488;BME280;29078;41.932;25.554;2023-05-29T07:32:30;99284.50;;;20.50;65.42
43488;BME280;29078;41.932;25.554;2023-05-29T07:34:56;99280.81;;;20.56;65.23
43488;BME280;29078;41.932;25.554;2023-05-29T07:37:21;99290.78;;;20.61;64.50
43488;BME280;29078;41.932;25.554;2023-05-29T07:39:46;99297.78;;;20.62;64.29
43488;BME280;29078;41.932;25.554;2023-05-29T07:42:11;99292.66;;;20.60;63.82
43488;BME280;29078;41.932;25.554;2023-05-29T07:44:37;99292.41;;;20.62;63.75
43488;BME280;29078;41.932;25.554;2023-05-29T07:47:02;99300.84;;;20.71;63.71
43488;BME280;29078;41.932;25.554;2023-05-29T07:49:27;99296.44;;;20.81;63.56
43488;BME280;29078;41.932;25.554;2023-05-29T07:51:52;99301.66;;;20.93;63.67
43488;BME280;29078;41.932;25.554;2023-05-29T07:54:18;99293.16;;;21.01;63.34
43488;BME280;29078;41.932;25.554;2023-05-29T07:56:45;99275.03;;;20.86;63.24
43488;BME280;29078;41.932;25.554;2023-05-29T07:59:10;99307.44;;;21.07;62.80
43488;BME280;29078;41.932;25.554;2023-05-29T08:01:37;99301.06;;;21.13;63.03
43488;BME280;29078;41.932;25.554;2023-05-29T08:04:02;99301.38;;;21.16;62.69
43488;BME280;29078;41.932;25.554;2023-05-29T08:06:27;99299.00;;;21.20;62.58
43488;BME280;29078;41.932;25.554;2023-05-29T08:08:53;99297.50;;;21.29;62.46
43488;BME280;29078;41.932;25.554;2023-05-29T08:11:18;99295.69;;;21.35;61.89
43488;BME280;29078;41.932;25.554;2023-05-29T08:13:44;99287.41;;;21.41;62.41
43488;BME280;29078;41.932;25.554;2023-05-29T08:16:09;99293.94;;;21.50;62.39
43488;BME280;29078;41.932;25.554;2023-05-29T08:18:35;99288.13;;;21.59;61.62
43488;BME280;29078;41.932;25.554;2023-05-29T08:21:01;99280.34;;;21.57;60.46
43488;BME280;29078;41.932;25.554;2023-05-29T08:23:26;99292.31;;;21.49;61.21
43488;BME280;29078;41.932;25.554;2023-05-29T08:25:52;99281.41;;;21.56;60.78
43488;BME280;29078;41.932;25.554;2023-05-29T08:28:17;99288.44;;;21.62;60.95
43488;BME280;29078;41.932;25.554;2023-05-29T08:30:42;99286.34;;;21.69;60.98
43488;BME280;29078;41.932;25.554;2023-05-29T08:33:08;99279.38;;;21.73;60.99
43488;BME280;29078;41.932;25.554;2023-05-29T08:35:33;99279.97;;;21.80;60.29
43488;BME280;29078;41.932;25.554;2023-05-29T08:37:59;99276.69;;;22.05;60.32
43488;BME280;29078;41.932;25.554;2023-05-29T08:40:24;99275.44;;;22.23;59.49
43488;BME280;29078;41.932;25.554;2023-05-29T08:45:21;99280.25;;;22.16;59.65
43488;BME280;29078;41.932;25.554;2023-05-29T08:47:48;99277.00;;;22.14;59.77
43488;BME280;29078;41.932;25.554;2023-05-29T08:50:16;99263.91;;;22.28;59.94
43488;BME280;29078;41.932;25.554;2023-05-29T08:52:42;99263.16;;;22.32;59.56
43488;BME280;29078;41.932;25.554;2023-05-29T08:55:08;99256.75;;;22.48;58.87
43488;BME280;29078;41.932;25.554;2023-05-29T08:57:34;99253.56;;;22.57;59.13
43488;BME280;29078;41.932;25.554;2023-05-29T09:00:01;99248.69;;;22.48;59.17
43488;BME280;29078;41.932;25.554;2023-05-29T09:02:30;99259.13;;;22.35;59.12
43488;BME280;29078;41.932;25.554;2023-05-29T09:04:55;99250.44;;;22.28;58.83
43488;BME280;29078;41.932;25.554;2023-05-29T09:07:22;99248.97;;;22.47;58.56
43488;BME280;29078;41.932;25.554;2023-05-29T09:09:47;99237.75;;;22.75;58.88
43488;BME280;29078;41.932;25.554;2023-05-29T09:12:13;99237.03;;;22.95;57.59
43488;BME280;29078;41.932;25.554;2023-05-29T09:14:40;99239.44;;;22.92;55.59
43488;BME280;29078;41.932;25.554;2023-05-29T09:17:06;99235.47;;;23.09;57.46
43488;BME280;29078;41.932;25.554;2023-05-29T09:19:35;99229.56;;;23.33;56.70
43488;BME280;29078;41.932;25.554;2023-05-29T09:22:04;99237.38;;;23.44;56.75
43488;BME280;29078;41.932;25.554;2023-05-29T09:24:30;99238.19;;;23.60;56.53
43488;BME280;29078;41.932;25.554;2023-05-29T09:26:58;99223.91;;;23.75;54.92
43488;BME280;29078;41.932;25.554;2023-05-29T09:29:24;99221.19;;;24.00;55.77
43488;BME280;29078;41.932;25.554;2023-05-29T09:31:50;99215.47;;;24.12;54.88
43488;BME280;29078;41.932;25.554;2023-05-29T09:34:15;99227.31;;;24.26;54.26
43488;BME280;29078;41.932;25.554;2023-05-29T09:36:41;99215.69;;;24.41;53.95
43488;BME280;29078;41.932;25.554;2023-05-29T09:39:07;99225.59;;;24.61;54.07
43488;BME280;29078;41.932;25.554;2023-05-29T09:41:43;99222.22;;;24.84;51.65
43488;BME280;29078;41.932;25.554;2023-05-29T09:44:12;99219.75;;;24.98;52.88
43488;BME280;29078;41.932;25.554;2023-05-29T09:46:39;99216.72;;;25.05;52.67
43488;BME280;29078;41.932;25.554;2023-05-29T09:49:10;99213.59;;;25.31;50.12
43488;BME280;29078;41.932;25.554;2023-05-29T09:51:36;99219.47;;;25.39;49.71
43488;BME280;29078;41.932;25.554;2023-05-29T09:54:12;99217.66;;;25.29;52.05
43488;BME280;29078;41.932;25.554;2023-05-29T09:56:37;99217.03;;;24.93;49.18
43488;BME280;29078;41.932;25.554;2023-05-29T09:59:03;99215.34;;;24.63;50.38
43488;BME280;29078;41.932;25.554;2023-05-29T10:01:28;99216.50;;;24.36;51.92
43488;BME280;29078;41.932;25.554;2023-05-29T10:03:54;99217.59;;;24.35;53.12
43488;BME280;29078;41.932;25.554;2023-05-29T10:06:19;99215.19;;;24.19;52.63
43488;BME280;29078;41.932;25.554;2023-05-29T10:08:45;99207.69;;;24.05;52.81
43488;BME280;29078;41.932;25.554;2023-05-29T10:11:16;99221.41;;;24.14;53.47
43488;BME280;29078;41.932;25.554;2023-05-29T10:13:44;99218.16;;;24.27;52.42
43488;BME280;29078;41.932;25.554;2023-05-29T10:16:14;99207.63;;;24.31;51.16
43488;BME280;29078;41.932;25.554;2023-05-29T10:18:42;99218.13;;;24.37;51.22
43488;BME280;29078;41.932;25.554;2023-05-29T10:21:08;99219.13;;;24.62;51.33
43488;BME280;29078;41.932;25.554;2023-05-29T10:23:36;99222.94;;;24.56;51.60
43488;BME280;29078;41.932;25.554;2023-05-29T10:26:06;99223.25;;;24.39;51.61
43488;BME280;29078;41.932;25.554;2023-05-29T10:28:32;99223.53;;;24.22;52.65
43488;BME280;29078;41.932;25.554;2023-05-29T10:31:02;99225.22;;;23.98;52.86
43488;BME280;29078;41.932;25.554;2023-05-29T10:38:23;99220.13;;;23.66;53.27
43488;BME280;29078;41.932;25.554;2023-05-29T10:40:49;99220.16;;;23.61;54.37
43488;BME280;29078;41.932;25.554;2023-05-29T10:43:34;99226.59;;;23.65;54.12
43488;BME280;29078;41.932;25.554;2023-05-29T10:46:00;99219.88;;;23.67;53.88
43488;BME280;29078;41.932;25.554;2023-05-29T10:50:54;99235.22;;;23.77;52.74
43488;BME280;29078;41.932;25.554;2023-05-29T10:53:23;99252.22;;;23.67;53.93
43488;BME280;29078;41.932;25.554;2023-05-29T10:55:48;99278.63;;;23.55;54.56
43488;BME280;29078;41.932;25.554;2023-05-29T10:58:18;99287.72;;;23.24;54.88
43488;BME280;29078;41.932;25.554;2023-05-29T11:00:44;99283.28;;;22.82;55.81
43488;BME280;29078;41.932;25.554;2023-05-29T11:03:11;99291.28;;;22.19;56.95
43488;BME280;29078;41.932;25.554;2023-05-29T11:05:58;99280.97;;;21.69;58.07
43488;BME280;29078;41.932;25.554;2023-05-29T11:11:11;99283.44;;;20.73;61.04
43488;BME280;29078;41.932;25.554;2023-05-29T11:13:37;99279.88;;;20.46;63.08
43488;BME280;29078;41.932;25.554;2023-05-29T11:18:43;99263.78;;;20.07;62.87
43488;BME280;29078;41.932;25.554;2023-05-29T11:21:22;99281.97;;;19.88;66.66
43488;BME280;29078;41.932;25.554;2023-05-29T11:23:51;99307.22;;;19.76;67.50
43488;BME280;29078;41.932;25.554;2023-05-29T11:26:17;99304.13;;;19.67;67.42
43488;BME280;29078;41.932;25.554;2023-05-29T11:28:44;99310.59;;;19.54;66.56
43488;BME280;29078;41.932;25.554;2023-05-29T11:31:10;99323.31;;;19.47;67.22
43488;BME280;29078;41.932;25.554;2023-05-29T11:33:39;99335.88;;;19.47;68.37
43488;BME280;29078;41.932;25.554;2023-05-29T11:36:05;99319.81;;;19.47;67.00
43488;BME280;29078;41.932;25.554;2023-05-29T11:38:31;99320.38;;;19.49;68.11
43488;BME280;29078;41.932;25.554;2023-05-29T11:40:57;99317.47;;;19.50;67.84
43488;BME280;29078;41.932;25.554;2023-05-29T11:43:23;99316.22;;;19.53;68.78
43488;BME280;29078;41.932;25.554;2023-05-29T11:45:49;99304.81;;;19.46;68.52
43488;BME280;29078;41.932;25.554;2023-05-29T11:48:14;99302.84;;;19.41;69.64
43488;BME280;29078;41.932;25.554;2023-05-29T11:50:40;99302.38;;;19.44;70.35
43488;BME280;29078;41.932;25.554;2023-05-29T11:53:05;99298.06;;;19.43;68.68
43488;BME280;29078;41.932;25.554;2023-05-29T11:55:31;99293.19;;;19.40;68.96
43488;BME280;29078;41.932;25.554;2023-05-29T11:57:57;99287.34;;;19.43;68.82
43488;BME280;29078;41.932;25.554;2023-05-29T12:00:24;99291.34;;;19.41;68.38
43488;BME280;29078;41.932;25.554;2023-05-29T12:02:49;99288.56;;;19.35;69.85
43488;BME280;29078;41.932;25.554;2023-05-29T12:05:16;99289.75;;;19.28;70.15
43488;BME280;29078;41.932;25.554;2023-05-29T12:08:01;99294.84;;;19.29;70.06
43488;BME280;29078;41.932;25.554;2023-05-29T12:10:27;99286.81;;;19.29;69.25
43488;BME280;29078;41.932;25.554;2023-05-29T12:12:53;99292.75;;;19.31;70.08
43488;BME280;29078;41.932;25.554;2023-05-29T12:15:19;99298.47;;;19.35;69.70
43488;BME280;29078;41.932;25.554;2023-05-29T12:17:51;99298.69;;;19.33;67.57
43488;BME280;29078;41.932;25.554;2023-05-29T12:20:17;99298.09;;;19.31;69.80
43488;BME280;29078;41.932;25.554;2023-05-29T12:22:43;99296.59;;;19.35;69.77
43488;BME280;29078;41.932;25.554;2023-05-29T12:27:34;99292.63;;;19.38;69.72
43488;BME280;29078;41.932;25.554;2023-05-29T12:30:06;99288.66;;;19.41;68.85
43488;BME280;29078;41.932;25.554;2023-05-29T12:32:38;99285.25;;;19.45;69.58
43488;BME280;29078;41.932;25.554;2023-05-29T12:35:17;99274.88;;;19.49;70.65
43488;BME280;29078;41.932;25.554;2023-05-29T12:37:43;99277.06;;;19.52;70.56
43488;BME280;29078;41.932;25.554;2023-05-29T12:40:09;99280.34;;;19.54;71.24
43488;BME280;29078;41.932;25.554;2023-05-29T12:42:37;99275.88;;;19.59;69.97
43488;BME280;29078;41.932;25.554;2023-05-29T12:45:02;99271.09;;;19.61;70.96
43488;BME280;29078;41.932;25.554;2023-05-29T12:47:31;99267.44;;;19.67;70.55
43488;BME280;29078;41.932;25.554;2023-05-29T12:49:57;99264.28;;;19.71;70.09
43488;BME280;29078;41.932;25.554;2023-05-29T12:52:23;99259.81;;;19.76;69.78
43488;BME280;29078;41.932;25.554;2023-05-29T12:54:48;99257.78;;;19.83;69.15
43488;BME280;29078;41.932;25.554;2023-05-29T12:57:14;99254.69;;;19.91;69.78
43488;BME280;29078;41.932;25.554;2023-05-29T12:59:39;99262.28;;;19.99;68.63
43488;BME280;29078;41.932;25.554;2023-05-29T13:02:05;99262.63;;;20.03;69.48
43488;BME280;29078;41.932;25.554;2023-05-29T13:04:33;99253.63;;;20.09;69.93
43488;BME280;29078;41.932;25.554;2023-05-29T13:06:58;99243.53;;;20.16;69.12
43488;BME280;29078;41.932;25.554;2023-05-29T13:09:23;99241.47;;;20.23;69.88